createdAt,value
2017-04-05T00:01:21.733Z,-40
2017-04-05T00:02:02.215Z,-39.49
2017-04-05T00:02:42.599Z,-39.49
2017-04-05T00:03:23.062Z,-39.49
2017-04-05T00:04:03.482Z,-39.49
2017-04-05T00:04:44.008Z,-39.49
2017-04-05T00:05:24.465Z,-39.49
2017-04-05T00:07:22.158Z,-40
2017-04-05T00:08:02.590Z,-39.49
2017-04-05T00:08:43.118Z,-39.49
2017-04-05T00:09:23.592Z,-39.49
2017-04-05T00:10:04.044Z,-39.49
2017-04-05T00:10:44.550Z,-39.49
2017-04-05T00:11:25.045Z,-39.49
2017-04-05T00:12:05.529Z,-39.49
2017-04-05T00:12:46.016Z,-39.49
2017-04-05T00:13:26.529Z,-39.49
2017-04-05T00:14:06.988Z,-39.49
2017-04-05T00:15:54.470Z,-40
2017-04-05T00:16:34.908Z,-39.49
2017-04-05T00:17:15.388Z,-39.49
2017-04-05T00:17:55.829Z,-39.49
2017-04-05T00:18:36.268Z,-39.49
2017-04-05T00:19:16.720Z,-39.49
2017-04-05T00:20:54.044Z,-40
2017-04-05T00:21:34.541Z,-39.49
2017-04-05T00:22:14.977Z,-39.49
2017-04-05T00:22:55.439Z,-39.49
2017-04-05T00:23:35.917Z,-39.49
2017-04-05T00:24:16.397Z,-39.49
2017-04-05T00:24:56.887Z,-39.49
2017-04-05T00:25:37.328Z,-39.49
2017-04-05T00:26:17.801Z,-39.49
2017-04-05T00:26:58.228Z,-39.49
2017-04-05T00:27:38.655Z,-39.49
2017-04-05T00:28:19.114Z,-39.49
2017-04-05T00:29:56.551Z,-40
2017-04-05T00:30:36.955Z,-39.49
2017-04-05T00:31:17.386Z,-39.49
2017-04-05T00:31:57.848Z,-39.49
2017-04-05T00:32:38.284Z,-39.49
2017-04-05T00:33:18.793Z,-39.49
2017-04-05T00:33:59.237Z,-39.49
2017-04-05T00:34:39.657Z,-39.49
2017-04-05T00:35:20.091Z,-39.49
2017-04-05T00:36:00.531Z,-39.49
2017-04-05T00:36:40.976Z,-39.49
2017-04-05T00:37:21.422Z,-39.49
2017-04-05T00:38:01.864Z,-39.49
2017-04-05T00:39:59.521Z,-40
2017-04-05T00:40:40.002Z,-39.49
2017-04-05T00:41:20.472Z,-39.49
2017-04-05T00:43:33.170Z,-40
2017-04-05T00:44:13.640Z,-39.49
2017-04-05T00:44:54.149Z,-39.49
2017-04-05T00:45:34.614Z,-39.49
2017-04-05T00:46:15.876Z,-39.49
2017-04-05T00:46:56.363Z,-39.49
2017-04-05T00:47:36.847Z,-39.49
2017-04-05T00:48:17.325Z,-39.49
2017-04-05T00:48:57.815Z,-39.49
2017-04-05T00:49:38.261Z,-39.49
2017-04-05T00:50:18.730Z,-39.49
2017-04-05T00:50:59.181Z,-39.49
2017-04-05T00:51:39.616Z,-39.49
2017-04-05T00:52:20.100Z,-39.49
2017-04-05T00:53:00.513Z,-39.49
2017-04-05T00:54:47.963Z,-40
2017-04-05T00:55:28.482Z,-39.49
2017-04-05T00:56:08.942Z,-39.49
2017-04-05T00:56:49.421Z,-39.49
2017-04-05T00:57:29.887Z,-39.49
2017-04-05T00:58:10.327Z,-39.49
2017-04-05T00:58:50.796Z,-39.49
2017-04-05T00:59:31.245Z,-39.49
2017-04-05T01:00:11.740Z,-39.49
2017-04-05T01:00:52.183Z,-39.49
2017-04-05T01:02:49.831Z,-40
2017-04-05T01:03:30.286Z,-39.49
2017-04-05T01:04:10.772Z,-39.49
2017-04-05T01:04:51.214Z,-39.49
2017-04-05T01:05:31.642Z,-39.49
2017-04-05T01:06:12.099Z,-39.49
2017-04-05T01:06:52.520Z,-39.49
2017-04-05T01:07:33.004Z,-39.49
2017-04-05T01:09:45.742Z,-40
2017-04-05T01:10:26.234Z,-39.49
2017-04-05T01:11:06.710Z,-39.49
2017-04-05T01:11:47.151Z,-39.49
2017-04-05T01:12:27.605Z,-39.49
2017-04-05T01:13:08.070Z,-39.49
2017-04-05T01:13:48.540Z,-39.49
2017-04-05T01:14:29.010Z,-39.49
2017-04-05T01:15:09.479Z,-39.49
2017-04-05T01:15:49.913Z,-39.49
2017-04-05T01:16:30.315Z,-39.49
2017-04-05T01:17:10.810Z,-39.49
2017-04-05T01:17:51.251Z,-39.49
2017-04-05T01:18:31.704Z,-39.49
2017-04-05T01:19:12.174Z,-39.49
2017-04-05T01:21:04.704Z,-40
2017-04-05T01:21:45.219Z,-39.49
2017-04-05T01:22:25.717Z,-39.49
2017-04-05T01:23:06.171Z,-39.49
2017-04-05T01:23:46.701Z,-39.49
2017-04-05T01:24:27.117Z,-39.49
2017-04-05T01:25:07.625Z,-39.49
2017-04-05T01:25:48.085Z,-39.49
2017-04-05T01:26:28.527Z,-39.49
2017-04-05T01:27:08.958Z,-39.49
2017-04-05T01:27:49.394Z,-39.49
2017-04-05T01:28:29.840Z,-39.49
2017-04-05T01:29:10.335Z,-39.49
2017-04-05T01:31:02.869Z,-40
2017-04-05T01:31:43.365Z,-39.49
2017-04-05T01:32:23.834Z,-39.49
2017-04-05T01:33:04.304Z,-39.49
2017-04-05T01:33:44.856Z,-39.49
2017-04-05T01:35:22.172Z,-40
2017-04-05T01:36:02.673Z,-39.49
2017-04-05T01:36:43.110Z,-39.49
2017-04-05T01:37:23.578Z,-39.49
2017-04-05T01:39:11.053Z,-40
2017-04-05T01:39:51.563Z,-39.49
2017-04-05T01:40:32.012Z,-39.49
2017-04-05T01:41:12.484Z,-39.49
2017-04-05T01:41:52.964Z,-39.49
2017-04-05T01:42:33.450Z,-39.49
2017-04-05T01:43:13.878Z,-39.49
2017-04-05T01:43:54.310Z,-39.49
2017-04-05T01:45:46.849Z,-40
2017-04-05T01:46:27.347Z,-39.49
2017-04-05T01:47:07.791Z,-39.49
2017-04-05T01:47:48.242Z,-39.49
2017-04-05T01:48:28.691Z,-39.49
2017-04-05T01:49:09.161Z,-39.49
2017-04-05T01:49:49.634Z,-39.49
2017-04-05T01:51:47.239Z,-40
2017-04-05T01:52:27.672Z,-39.49
2017-04-05T01:53:08.136Z,-39.49
2017-04-05T01:53:48.582Z,-39.49
2017-04-05T01:54:29.022Z,-39.49
2017-04-05T01:55:09.467Z,-39.49
2017-04-05T01:55:49.928Z,-39.49
2017-04-05T01:56:30.355Z,-39.49
2017-04-05T01:57:10.772Z,-39.49
2017-04-05T01:57:51.234Z,-39.49
2017-04-05T01:58:31.659Z,-39.49
2017-04-05T01:59:12.116Z,-39.49
2017-04-05T01:59:52.575Z,-39.49
2017-04-05T02:00:33.038Z,-39.49
2017-04-05T02:01:13.481Z,-39.49
2017-04-05T02:01:53.915Z,-39.49
2017-04-05T02:03:46.459Z,-40
2017-04-05T02:04:26.931Z,-39.49
2017-04-05T02:05:07.403Z,-39.49
2017-04-05T02:05:47.905Z,-39.49
2017-04-05T02:06:28.359Z,-39.49
2017-04-05T02:07:08.799Z,-39.49
2017-04-05T02:07:49.290Z,-39.49
2017-04-05T02:08:29.736Z,-39.49
2017-04-05T02:10:07.087Z,-40
2017-04-05T02:10:47.567Z,-39.49
2017-04-05T02:11:28.040Z,-39.49
2017-04-05T02:13:40.738Z,-40
2017-04-05T02:14:21.161Z,-39.49
2017-04-05T02:15:01.638Z,-39.49
2017-04-05T02:15:42.142Z,-39.49
2017-04-05T02:16:22.600Z,-39.49
2017-04-05T02:17:03.038Z,-39.49
2017-04-05T02:17:43.500Z,-39.49
2017-04-05T02:18:23.952Z,-39.49
2017-04-05T02:19:04.404Z,-39.49
2017-04-05T02:19:44.842Z,-39.49
2017-04-05T02:21:22.241Z,-40
2017-04-05T02:22:02.688Z,-39.49
2017-04-05T02:22:43.079Z,-39.49
2017-04-05T02:23:23.493Z,-39.49
2017-04-05T02:25:00.834Z,-40
2017-04-05T02:25:41.301Z,-39.49
2017-04-05T02:26:21.790Z,-39.49
2017-04-05T02:27:02.266Z,-39.49
2017-04-05T02:27:42.749Z,-39.49
2017-04-05T02:28:23.220Z,-39.49
2017-04-05T02:29:03.732Z,-39.49
2017-04-05T02:29:44.169Z,-39.49
2017-04-05T02:30:24.636Z,-39.49
2017-04-05T02:31:05.083Z,-39.49
2017-04-05T02:31:45.518Z,-39.49
2017-04-05T02:32:25.995Z,-39.49
2017-04-05T02:33:06.456Z,-39.49
2017-04-05T02:33:46.890Z,-39.49
2017-04-05T02:35:24.242Z,-40
2017-04-05T02:36:04.699Z,-39.49
2017-04-05T02:36:45.178Z,-39.49
2017-04-05T02:37:25.645Z,-39.49
2017-04-05T02:38:06.106Z,-39.49
2017-04-05T02:38:46.597Z,-39.49
2017-04-05T02:39:27.058Z,-39.49
2017-04-05T02:40:07.492Z,-39.49
2017-04-05T02:41:44.856Z,-40
2017-04-05T02:42:25.346Z,-39.49
2017-04-05T02:43:05.804Z,-39.49
2017-04-05T02:43:46.285Z,-39.49
2017-04-05T02:44:26.744Z,-39.49
2017-04-05T02:45:07.224Z,-39.49
2017-04-05T02:47:00.162Z,-40
2017-04-05T02:47:40.574Z,-39.49
2017-04-05T02:48:21.066Z,-39.49
2017-04-05T02:49:01.489Z,-39.49
2017-04-05T02:49:41.981Z,-39.49
2017-04-05T02:50:22.469Z,-39.49
2017-04-05T02:51:02.922Z,-39.49
2017-04-05T02:51:43.358Z,-39.49
2017-04-05T02:52:23.808Z,-39.49
2017-04-05T02:53:04.284Z,-39.49
2017-04-05T02:53:44.751Z,-39.49
2017-04-05T02:55:42.387Z,-40
2017-04-05T02:56:22.857Z,-39.49
2017-04-05T02:58:20.471Z,-40
2017-04-05T02:59:00.915Z,-39.49
2017-04-05T02:59:41.387Z,-39.49
2017-04-05T03:00:21.892Z,-39.49
2017-04-05T03:01:02.411Z,-39.49
2017-04-05T03:01:42.873Z,-39.49
2017-04-05T03:02:23.326Z,-39.49
2017-04-05T03:03:03.756Z,-39.49
2017-04-05T03:03:44.210Z,-39.49
2017-04-05T03:04:24.693Z,-39.49
2017-04-05T03:05:05.147Z,-39.49
2017-04-05T03:05:45.593Z,-39.49
2017-04-05T03:06:26.034Z,-39.49
2017-04-05T03:07:06.516Z,-39.49
2017-04-05T03:07:46.927Z,-39.49
2017-04-05T03:09:34.432Z,-40
2017-04-05T03:10:14.927Z,-39.49
2017-04-05T03:10:55.327Z,-39.49
2017-04-05T03:11:35.734Z,-39.49
2017-04-05T03:13:23.179Z,-40
2017-04-05T03:14:03.694Z,-39.49
2017-04-05T03:14:44.201Z,-39.49
2017-04-05T03:15:24.728Z,-39.49
2017-04-05T03:16:05.165Z,-39.49
2017-04-05T03:17:57.709Z,-40
2017-04-05T03:18:38.191Z,-39.49
2017-04-05T03:19:18.666Z,-39.49
2017-04-05T03:19:59.122Z,-39.49
2017-04-05T03:20:39.593Z,-39.49
2017-04-05T03:21:20.071Z,-39.49
2017-04-05T03:22:00.490Z,-39.49
2017-04-05T03:22:40.919Z,-39.49
2017-04-05T03:23:21.363Z,-39.49
2017-04-05T03:25:19.005Z,-40
2017-04-05T03:25:59.466Z,-39.49
2017-04-05T03:26:39.921Z,-39.49
2017-04-05T03:27:20.331Z,-39.49
2017-04-05T03:28:00.828Z,-39.49
2017-04-05T03:28:41.226Z,-39.49
2017-04-05T03:29:21.658Z,-39.49
2017-04-05T03:30:02.097Z,-39.49
2017-04-05T03:30:42.525Z,-39.49
2017-04-05T03:31:22.984Z,-39.49
2017-04-05T03:33:00.353Z,-40
2017-04-05T03:33:40.795Z,-39.49
2017-04-05T03:34:21.228Z,-39.49
2017-04-05T03:36:18.840Z,-40
2017-04-05T03:36:59.301Z,-39.49
2017-04-05T03:37:39.776Z,-39.49
2017-04-05T03:38:20.224Z,-39.49
2017-04-05T03:39:00.651Z,-39.49
2017-04-05T03:39:41.105Z,-39.49
2017-04-05T03:40:21.545Z,-39.49
2017-04-05T03:41:01.976Z,-39.49
2017-04-05T03:41:42.465Z,-39.49
2017-04-05T03:42:22.930Z,-39.49
2017-04-05T03:43:03.369Z,-39.49
2017-04-05T03:44:50.818Z,-40
2017-04-05T03:45:31.277Z,-39.49
2017-04-05T03:46:11.733Z,-39.49
2017-04-05T03:46:52.182Z,-39.49
2017-04-05T03:47:32.636Z,-39.49
2017-04-05T03:48:13.085Z,-39.49
2017-04-05T03:48:53.520Z,-39.49
2017-04-05T03:49:33.953Z,-39.49
2017-04-05T03:50:14.393Z,-39.49
2017-04-05T03:50:54.816Z,-39.49
2017-04-05T03:51:35.264Z,-39.49
2017-04-05T03:52:15.698Z,-39.49
2017-04-05T03:52:56.125Z,-39.49
2017-04-05T03:53:36.534Z,-39.49
2017-04-05T03:54:17.069Z,-39.49
2017-04-05T03:56:09.586Z,-40
2017-04-05T03:56:50.070Z,-39.49
2017-04-05T03:57:30.513Z,-39.49
2017-04-05T03:58:10.945Z,-39.49
2017-04-05T03:58:51.384Z,-39.49
2017-04-05T03:59:31.813Z,-39.49
2017-04-05T04:00:12.250Z,-39.49
2017-04-05T04:00:52.705Z,-39.49
2017-04-05T04:01:33.129Z,-39.49
2017-04-05T04:02:13.574Z,-39.49
2017-04-05T04:02:54.031Z,-39.49
2017-04-05T04:03:34.471Z,-39.49
2017-04-05T04:04:14.914Z,-39.49
2017-04-05T04:04:55.344Z,-39.49
2017-04-05T04:05:35.782Z,-39.49
2017-04-05T04:06:16.265Z,-39.49
2017-04-05T04:06:56.696Z,-39.49
2017-04-05T04:08:49.236Z,-40
2017-04-05T04:09:29.657Z,-39.49
2017-04-05T04:10:10.101Z,-39.49
2017-04-05T04:10:50.579Z,-39.49
2017-04-05T04:11:31.006Z,-39.49
2017-04-05T04:12:11.411Z,-39.49
2017-04-05T04:12:51.836Z,-39.49
2017-04-05T04:13:32.286Z,-39.49
2017-04-05T04:14:12.705Z,-39.49
2017-04-05T04:14:53.118Z,-39.49
2017-04-05T04:15:33.582Z,-39.49
2017-04-05T04:16:14.045Z,-39.49
2017-04-05T04:16:54.503Z,-39.49
2017-04-05T04:17:34.984Z,-39.49
2017-04-05T04:19:22.438Z,-40
2017-04-05T04:20:02.911Z,-39.49
2017-04-05T04:20:43.410Z,-39.49
2017-04-05T04:21:23.885Z,-39.49
2017-04-05T04:22:04.360Z,-39.49
2017-04-05T04:22:44.832Z,-39.49
2017-04-05T04:23:25.289Z,-39.49
2017-04-05T04:24:05.793Z,-39.49
2017-04-05T04:24:46.192Z,-39.49
2017-04-05T04:25:26.665Z,-39.49
2017-04-05T04:26:07.084Z,-39.49
2017-04-05T04:26:47.522Z,-39.49
2017-04-05T04:27:27.948Z,-39.49
2017-04-05T04:29:40.642Z,-40
2017-04-05T04:30:21.123Z,-39.49
2017-04-05T04:31:01.603Z,-39.49
2017-04-05T04:31:42.046Z,-39.49
2017-04-05T04:32:22.506Z,-39.49
2017-04-05T04:33:02.953Z,-39.49
2017-04-05T04:33:43.402Z,-39.49
2017-04-05T04:34:23.842Z,-39.49
2017-04-05T04:35:04.298Z,-39.49
2017-04-05T04:35:44.735Z,-39.49
2017-04-05T04:36:25.174Z,-39.49
2017-04-05T04:37:05.639Z,-39.49
2017-04-05T04:37:46.125Z,-39.49
2017-04-05T04:38:26.535Z,-39.49
2017-04-05T04:39:06.971Z,-39.49
2017-04-05T04:39:47.418Z,-39.49
2017-04-05T04:40:27.854Z,-39.49
2017-04-05T04:41:08.302Z,-39.49
2017-04-05T04:41:48.756Z,-39.49
2017-04-05T04:42:29.189Z,-39.49
2017-04-05T04:43:09.624Z,-39.49
2017-04-05T04:43:50.074Z,-39.49
2017-04-05T04:44:30.502Z,-39.49
2017-04-05T04:45:10.948Z,-39.49
2017-04-05T04:45:51.374Z,-39.49
2017-04-05T04:46:31.835Z,-39.49
2017-04-05T04:47:12.247Z,-39.49
2017-04-05T04:47:52.681Z,-39.49
2017-04-05T04:48:33.162Z,-39.49
2017-04-05T04:49:13.619Z,-39.49
2017-04-05T04:49:54.047Z,-39.49
2017-04-05T04:50:34.548Z,-39.49
2017-04-05T04:51:14.952Z,-39.49
2017-04-05T04:51:55.399Z,-39.49
2017-04-05T04:52:35.859Z,-39.49
2017-04-05T04:53:16.311Z,-39.49
2017-04-05T04:53:56.738Z,-39.49
2017-04-05T04:54:37.157Z,-39.49
2017-04-05T04:55:17.626Z,-39.49
2017-04-05T04:55:58.070Z,-39.49
2017-04-05T04:56:38.486Z,-39.49
2017-04-05T04:58:31.024Z,-40
2017-04-05T04:59:11.489Z,-39.49
2017-04-05T04:59:51.977Z,-39.49
2017-04-05T05:00:32.422Z,-39.49
2017-04-05T05:01:12.922Z,-39.49
2017-04-05T05:01:53.379Z,-39.49
2017-04-05T05:02:33.842Z,-39.49
2017-04-05T05:03:14.245Z,-39.49
2017-04-05T05:03:54.694Z,-39.49
2017-04-05T05:04:35.159Z,-39.49
2017-04-05T05:05:15.587Z,-39.49
2017-04-05T05:05:56.027Z,-39.49
2017-04-05T05:07:53.617Z,-40
2017-04-05T05:08:34.174Z,-39.49
2017-04-05T05:09:14.662Z,-39.49
2017-04-05T05:09:55.125Z,-39.49
2017-04-05T05:10:35.604Z,-39.49
2017-04-05T05:11:16.112Z,-39.49
2017-04-05T05:11:56.601Z,-39.49
2017-04-05T05:12:37.053Z,-39.49
2017-04-05T05:13:17.541Z,-39.49
2017-04-05T05:13:58.009Z,-39.49
2017-04-05T05:14:38.501Z,-39.49
2017-04-05T05:15:18.988Z,-39.49
2017-04-05T05:15:59.433Z,-39.49
2017-04-05T05:16:39.864Z,-39.49
2017-04-05T05:17:20.321Z,-39.49
2017-04-05T05:18:00.751Z,-39.49
2017-04-05T05:18:41.193Z,-39.49
2017-04-05T05:19:21.625Z,-39.49
2017-04-05T05:20:02.082Z,-39.49
2017-04-05T05:20:42.495Z,-39.49
2017-04-05T05:21:22.910Z,-39.49
2017-04-05T05:23:00.256Z,-40
2017-04-05T05:23:40.752Z,-39.49
2017-04-05T05:24:21.203Z,-39.49
2017-04-05T05:25:01.637Z,-39.49
2017-04-05T05:25:42.116Z,-39.49
2017-04-05T05:26:22.600Z,-39.49
2017-04-05T05:27:03.069Z,-39.49
2017-04-05T05:27:43.557Z,-39.49
2017-04-05T05:28:23.955Z,-39.49
2017-04-05T05:29:04.389Z,-39.49
2017-04-05T05:30:51.886Z,-40
2017-04-05T05:31:32.425Z,-39.49
2017-04-05T05:32:12.920Z,-39.49
2017-04-05T05:32:53.361Z,-39.49
2017-04-05T05:33:33.818Z,-39.49
2017-04-05T05:34:14.250Z,-39.49
2017-04-05T05:34:54.724Z,-39.49
2017-04-05T05:37:07.465Z,-40
2017-04-05T05:37:47.831Z,-39.49
2017-04-05T05:38:28.234Z,-39.49
2017-04-05T05:40:20.897Z,-40
2017-04-05T05:41:01.347Z,-39.49
2017-04-05T05:41:41.804Z,-39.49
2017-04-05T05:43:29.360Z,-40
2017-04-05T05:44:09.853Z,-39.49
2017-04-05T05:44:50.285Z,-39.49
2017-04-05T05:45:30.747Z,-39.49
2017-04-05T05:46:11.310Z,-39.49
2017-04-05T05:46:51.737Z,-39.49
2017-04-05T05:47:32.186Z,-39.49
2017-04-05T05:48:12.599Z,-39.49
2017-04-05T05:48:53.074Z,-39.49
2017-04-05T05:49:33.543Z,-39.49
2017-04-05T05:50:14.025Z,-39.49
2017-04-05T05:50:54.486Z,-39.49
2017-04-05T05:51:34.918Z,-39.49
2017-04-05T05:52:15.428Z,-39.49
2017-04-05T05:52:55.893Z,-39.49
2017-04-05T05:53:36.340Z,-39.49
2017-04-05T05:54:16.755Z,-39.49
2017-04-05T05:55:54.096Z,-40
2017-04-05T05:56:34.538Z,-39.49
2017-04-05T05:58:22.034Z,-40
2017-04-05T05:59:02.512Z,-39.49
2017-04-05T05:59:43.069Z,-39.49
2017-04-05T06:00:23.528Z,-39.49
2017-04-05T06:01:04.018Z,-39.49
2017-04-05T06:01:44.459Z,-39.49
2017-04-05T06:02:24.901Z,-39.49
2017-04-05T06:04:37.601Z,-40
2017-04-05T06:05:18.066Z,-39.49
2017-04-05T06:05:58.561Z,-39.49
2017-04-05T06:06:39.021Z,-39.49
2017-04-05T06:07:19.446Z,-39.49
2017-04-05T06:09:06.917Z,-40
2017-04-05T06:09:47.377Z,-39.49
2017-04-05T06:10:27.840Z,-39.49
2017-04-05T06:11:08.265Z,-39.49
2017-04-05T06:11:48.715Z,-39.49
2017-04-05T06:12:29.265Z,-39.49
2017-04-05T06:13:09.715Z,-39.49
2017-04-05T06:13:50.137Z,-39.49
2017-04-05T06:14:30.537Z,-39.49
2017-04-05T06:16:28.178Z,-40
2017-04-05T06:17:08.638Z,-39.49
2017-04-05T06:17:49.099Z,-39.49
2017-04-05T06:18:29.584Z,-39.49
2017-04-05T06:19:10.015Z,-39.49
2017-04-05T06:19:50.457Z,-39.49
2017-04-05T06:20:30.943Z,-39.49
2017-04-05T06:21:11.423Z,-39.49
2017-04-05T06:21:51.863Z,-39.49
2017-04-05T06:23:49.583Z,-40
2017-04-05T06:24:29.975Z,-39.49
2017-04-05T06:25:10.427Z,-39.49
2017-04-05T06:25:50.890Z,-39.49
2017-04-05T06:26:31.370Z,-39.49
2017-04-05T06:27:11.807Z,-39.49
2017-04-05T06:27:52.304Z,-39.49
2017-04-05T06:28:32.758Z,-39.49
2017-04-05T06:29:13.202Z,-39.49
2017-04-05T06:29:53.652Z,-39.49
2017-04-05T06:30:34.088Z,-39.49
2017-04-05T06:31:14.559Z,-39.49
2017-04-05T06:31:55.014Z,-39.49
2017-04-05T06:32:35.675Z,-39.49
2017-04-05T06:33:16.134Z,-39.49
2017-04-05T06:33:56.615Z,-39.49
2017-04-05T06:34:37.081Z,-39.49
2017-04-05T06:35:17.526Z,-39.49
2017-04-05T06:35:57.964Z,-39.49
2017-04-05T06:36:38.434Z,-39.49
2017-04-05T06:38:36.118Z,-40
2017-04-05T06:39:16.563Z,-39.49
2017-04-05T06:39:57.039Z,-39.49
2017-04-05T06:40:37.539Z,-39.49
2017-04-05T06:41:17.976Z,-39.49
2017-04-05T06:42:55.297Z,-40
2017-04-05T06:43:35.827Z,-39.49
2017-04-05T06:44:16.300Z,-39.49
2017-04-05T06:44:56.740Z,-39.49
2017-04-05T06:45:37.205Z,-39.49
2017-04-05T06:46:17.702Z,-39.49
2017-04-05T06:46:58.203Z,-39.49
2017-04-05T06:47:38.671Z,-39.49
2017-04-05T06:49:06.073Z,-40
2017-04-05T06:49:46.541Z,-39.49
2017-04-05T06:50:26.994Z,-39.49
2017-04-05T06:51:07.435Z,-39.49
2017-04-05T06:51:47.846Z,-39.49
2017-04-05T06:52:28.307Z,-39.49
2017-04-05T06:53:08.765Z,-39.49
2017-04-05T06:53:49.197Z,-39.49
2017-04-05T06:54:29.613Z,-39.49
2017-04-05T06:55:10.044Z,-39.49
2017-04-05T06:56:57.524Z,-40
2017-04-05T06:57:37.983Z,-39.49
2017-04-05T06:58:18.423Z,-39.49
2017-04-05T06:58:58.886Z,-39.49
2017-04-05T06:59:39.363Z,-39.49
2017-04-05T07:01:36.945Z,-40
2017-04-05T07:02:17.413Z,-39.49
2017-04-05T07:02:57.871Z,-39.49
2017-04-05T07:03:38.377Z,-39.49
2017-04-05T07:04:18.869Z,-39.49
2017-04-05T07:04:59.324Z,-39.49
2017-04-05T07:05:39.752Z,-39.49
2017-04-05T07:06:20.293Z,-39.49
2017-04-05T07:07:00.752Z,-39.49
2017-04-05T07:07:41.214Z,-39.49
2017-04-05T07:08:21.693Z,-39.49
2017-04-05T07:09:02.230Z,-39.49
2017-04-05T07:09:42.661Z,-39.49
2017-04-05T07:10:23.138Z,-39.49
2017-04-05T07:11:03.689Z,-39.49
2017-04-05T07:11:44.140Z,-39.49
2017-04-05T07:12:24.685Z,-39.49
2017-04-05T07:13:05.173Z,-39.49
2017-04-05T07:13:45.646Z,-39.49
2017-04-05T07:14:26.129Z,-39.49
2017-04-05T07:15:06.552Z,-39.49
2017-04-05T07:15:47.064Z,-39.49
2017-04-05T07:16:27.560Z,-39.49
2017-04-05T07:18:04.964Z,-40
2017-04-05T07:18:45.410Z,-39.49
2017-04-05T07:19:25.875Z,-39.49
2017-04-05T07:20:06.305Z,-39.49
2017-04-05T07:20:46.861Z,-39.49
2017-04-05T07:21:27.359Z,-39.49
2017-04-05T07:22:07.871Z,-39.49
2017-04-05T07:22:48.363Z,-39.49
2017-04-05T07:23:28.838Z,-39.49
2017-04-05T07:24:09.282Z,-39.49
2017-04-05T07:24:49.737Z,-39.49
2017-04-05T07:25:30.205Z,-39.49
2017-04-05T07:26:10.639Z,-39.49
2017-04-05T07:26:51.090Z,-39.49
2017-04-05T07:27:31.502Z,-39.49
2017-04-05T07:28:12.020Z,-39.49
2017-04-05T07:28:52.483Z,-39.49
2017-04-05T07:29:33.055Z,-39.49
2017-04-05T07:30:13.567Z,-39.49
2017-04-05T07:30:53.998Z,-39.49
2017-04-05T07:31:34.505Z,-39.49
2017-04-05T07:32:14.947Z,-39.49
2017-04-05T07:32:55.398Z,-39.49
2017-04-05T07:33:36.508Z,-39.49
2017-04-05T07:34:16.990Z,-39.49
2017-04-05T07:34:57.429Z,-39.49
2017-04-05T07:35:37.883Z,-39.49
2017-04-05T07:41:32.047Z,17.97
2017-04-05T07:42:12.470Z,17.38
2017-04-05T07:42:52.900Z,16.21
2017-04-05T07:43:33.379Z,15.93
2017-04-05T07:44:13.869Z,16.11
2017-04-05T07:44:54.263Z,16.15
2017-04-05T07:45:34.807Z,16.21
2017-04-05T07:46:15.185Z,15.89
2017-04-05T07:46:55.642Z,15.9
2017-04-05T07:47:36.121Z,15.69
2017-04-05T07:48:16.642Z,15.29
2017-04-05T07:48:57.127Z,15.62
2017-04-05T07:50:44.593Z,15.19
2017-04-05T07:51:25.095Z,15.5
2017-04-05T07:52:05.663Z,15.82
2017-04-05T07:52:46.141Z,15.62
2017-04-05T07:53:26.596Z,15.84
2017-04-05T07:55:19.224Z,15.76
2017-04-05T07:55:59.646Z,16.09
2017-04-05T07:56:40.154Z,16.35
2017-04-05T07:57:20.571Z,16.7
2017-04-05T07:58:01.080Z,16.5
2017-04-05T07:58:41.532Z,16.14
2017-04-05T07:59:21.994Z,16.14
2017-04-05T08:00:02.441Z,15.9
2017-04-05T08:00:42.888Z,16.08
2017-04-05T08:01:23.408Z,15.86
2017-04-05T08:02:03.921Z,16.3
2017-04-05T08:02:44.443Z,16.45
2017-04-05T08:03:24.872Z,16.46
2017-04-05T08:04:05.413Z,16.46
2017-04-05T08:04:45.851Z,16.7
2017-04-05T08:05:26.332Z,16.75
2017-04-05T08:07:04.061Z,16.35
2017-04-05T08:07:44.506Z,16.93
2017-04-05T08:08:24.976Z,17.03
2017-04-05T08:09:05.452Z,17.48
2017-04-05T08:09:45.955Z,17.66
2017-04-05T08:10:26.479Z,17.78
2017-04-05T08:11:07.005Z,17.07
2017-04-05T08:13:19.746Z,17.08
2017-04-05T08:14:00.224Z,17.64
2017-04-05T08:15:47.729Z,18.72
2017-04-05T08:16:28.269Z,19
2017-04-05T08:17:08.759Z,18.08
2017-04-05T08:17:49.242Z,17.54
2017-04-05T08:18:29.704Z,17.48
2017-04-05T08:19:10.158Z,16.97
2017-04-05T08:19:50.748Z,17.06
2017-04-05T08:20:31.332Z,17.74
2017-04-05T08:21:11.737Z,18.3
2017-04-05T08:21:52.425Z,18.81
2017-04-05T08:22:32.938Z,19.19
2017-04-05T08:23:13.675Z,19.81
2017-04-05T08:23:55.067Z,19.73
2017-04-05T08:24:35.549Z,18.92
2017-04-05T08:25:16.000Z,18.1
2017-04-05T08:25:56.442Z,18.18
2017-04-05T08:26:36.955Z,17.97
2017-04-05T08:27:17.445Z,18.98
2017-04-05T08:29:15.382Z,20.62
2017-04-05T08:29:55.769Z,21.03
2017-04-05T08:30:36.250Z,21.61
2017-04-05T08:31:16.730Z,21.91
2017-04-05T08:33:29.417Z,20.73
2017-04-05T08:34:09.981Z,21.32
2017-04-05T08:34:50.536Z,21.09
2017-04-05T08:35:31.037Z,20.61
2017-04-05T08:36:11.497Z,19.81
2017-04-05T08:36:51.950Z,18.76
2017-04-05T08:37:32.423Z,17.58
2017-04-05T08:38:12.888Z,17.64
2017-04-05T08:38:53.584Z,18.44
2017-04-05T08:40:46.213Z,19.73
2017-04-05T08:41:26.737Z,19.66
2017-04-05T08:42:07.243Z,19.65
2017-04-05T08:42:47.695Z,18.25
2017-04-05T08:43:28.192Z,17.49
2017-04-05T08:45:40.973Z,18.75
2017-04-05T08:46:21.509Z,18.03
2017-04-05T08:47:01.958Z,18.12
2017-04-05T08:47:42.433Z,18.5
2017-04-05T08:48:22.886Z,18.57
2017-04-05T08:49:03.354Z,19.26
2017-04-05T08:49:43.792Z,19.71
2017-04-05T08:50:24.294Z,19.71
2017-04-05T08:51:04.756Z,20.28
2017-04-05T08:51:45.299Z,20.61
2017-04-05T08:52:25.841Z,20.66
2017-04-05T08:53:06.298Z,19.74
2017-04-05T08:53:46.845Z,19.31
2017-04-05T08:54:27.374Z,18.78
2017-04-05T08:55:07.855Z,18.82
2017-04-05T08:55:48.410Z,18.94
2017-04-05T08:58:01.234Z,17.66
2017-04-05T08:58:41.744Z,17.51
2017-04-05T08:59:22.354Z,17.43
2017-04-05T09:00:02.819Z,18.44
2017-04-05T09:00:43.451Z,18.92
2017-04-05T09:01:23.952Z,19.48
2017-04-05T09:02:04.322Z,20.16
2017-04-05T09:02:44.859Z,20.8
2017-04-05T09:03:25.327Z,21.34
2017-04-05T09:04:05.798Z,21.53
2017-04-05T09:04:46.401Z,20.2
2017-04-05T09:05:26.860Z,19.31
2017-04-05T09:06:07.322Z,18.73
2017-04-05T09:06:47.808Z,18.6
2017-04-05T09:07:28.411Z,18.41
2017-04-05T09:08:08.879Z,18.5
2017-04-05T09:08:49.389Z,18.39
2017-04-05T09:12:34.429Z,17.58
2017-04-05T09:13:14.913Z,17.97
2017-04-05T09:13:55.357Z,17.72
2017-04-05T09:14:35.816Z,17.92
2017-04-05T09:15:16.323Z,17.92
2017-04-05T09:15:56.776Z,17.93
2017-04-05T09:16:37.380Z,17.54
2017-04-05T09:17:17.947Z,18.23
2017-04-05T09:17:58.423Z,18.95
2017-04-05T09:18:38.959Z,19.37
2017-04-05T09:19:19.423Z,18.66
2017-04-05T09:19:59.983Z,18.63
2017-04-05T09:20:40.561Z,19.19
2017-04-05T09:21:21.108Z,19.26
2017-04-05T09:22:01.666Z,19.44
2017-04-05T09:22:42.151Z,18.36
2017-04-05T09:23:22.603Z,17.89
2017-04-05T09:24:03.396Z,18.47
2017-04-05T09:24:44.107Z,17.96
2017-04-05T09:25:24.670Z,17.18
2017-04-05T09:26:05.118Z,17.4
2017-04-05T09:26:45.584Z,17.22
2017-04-05T09:27:26.052Z,17.43
2017-04-05T09:29:38.786Z,18.1
2017-04-05T09:30:19.500Z,18.23
2017-04-05T09:31:00.018Z,18.5
2017-04-05T09:31:40.556Z,18.75
2017-04-05T09:32:21.100Z,18.84
2017-04-05T09:33:01.590Z,19.16
2017-04-05T09:33:42.102Z,18.88
2017-04-05T09:34:22.554Z,18.65
2017-04-05T09:35:03.058Z,18.48
2017-04-05T09:35:43.491Z,18.85
2017-04-05T09:36:23.995Z,19.31
2017-04-05T09:37:04.421Z,19.91
2017-04-05T09:37:44.963Z,20.17
2017-04-05T09:38:25.475Z,19.47
2017-04-05T09:39:06.078Z,18.02
2017-04-05T09:39:46.604Z,17.3
2017-04-05T09:40:27.111Z,17.49
2017-04-05T09:41:07.594Z,17.75
2017-04-05T09:41:48.104Z,17.92
2017-04-05T09:42:28.814Z,17.71
2017-04-05T09:43:09.381Z,17.43
2017-04-05T09:43:49.943Z,16.7
2017-04-05T09:44:30.548Z,17.16
2017-04-05T09:45:10.994Z,17.49
2017-04-05T09:45:51.532Z,16.83
2017-04-05T09:46:32.073Z,16.96
2017-04-05T09:47:12.560Z,17.01
2017-04-05T09:47:53.125Z,17.36
2017-04-05T09:48:33.647Z,17.99
2017-04-05T09:49:14.155Z,18.25
2017-04-05T09:49:54.836Z,18.32
2017-04-05T09:50:35.266Z,18.52
2017-04-05T09:51:15.768Z,18.35
2017-04-05T09:51:56.216Z,17.87
2017-04-05T09:52:36.933Z,18.23
2017-04-05T09:53:17.401Z,18.35
2017-04-05T09:55:10.200Z,17.87
2017-04-05T09:55:51.081Z,17.89
2017-04-05T09:56:31.686Z,18.03
2017-04-05T09:57:12.190Z,17.86
2017-04-05T09:57:52.962Z,17.9
2017-04-05T10:00:05.977Z,17.96
2017-04-05T10:00:46.404Z,18.08
2017-04-05T10:01:27.086Z,18.81
2017-04-05T10:02:07.858Z,19.55
2017-04-05T10:02:48.309Z,20.02
2017-04-05T10:03:28.794Z,20.29
2017-04-05T10:04:09.363Z,19.44